Ilasco, Missouri
Current Conditions -  °F | °C
As of 12:15 AM on Friday 31 Oct 2014 (Local Time) from KHAE Reporting Station
Overcast Overcast  
Wind Chill: 50°   Ceiling: 6500
Heat Index: 50°   Visibility: 10mi
Dew Point: 41°   Wind: 5mph
Humidity: 71%   Direction: 350°N
Pressure: 30.11"   Gusts: NA
Location:  39.7145°N, 91.4209°W
Report Text: KHAE 310515Z AUTO 35004KT 10SM BKN065 BKN075 OVC085 10/05 A3011 RMK AO2
Loading
Personal Weather Stations






























Interactive Weather Map
Tropical Storm Tracking
New forecast layout! Learn more

10-Day Weather Forecast

Advertisements
Track Severe Weather on mobile